sensor_id;sensor_type;location;lat;lon;timestamp;temperature;humidity
25264;DHT22;13211;51.796;5.808;2022-09-17T00:03:36;11.80;99.90
25264;DHT22;13211;51.796;5.808;2022-09-17T00:06:09;11.80;99.90
25264;DHT22;13211;51.796;5.808;2022-09-17T00:08:40;11.70;99.90
25264;DHT22;13211;51.796;5.808;2022-09-17T00:11:17;11.70;99.90
25264;DHT22;13211;51.796;5.808;2022-09-17T00:13:50;11.60;99.90
25264;DHT22;13211;51.796;5.808;2022-09-17T00:16:35;11.60;99.90
25264;DHT22;13211;51.796;5.808;2022-09-17T00:19:04;11.50;99.90
25264;DHT22;13211;51.796;5.808;2022-09-17T00:21:32;11.50;99.90
25264;DHT22;13211;51.796;5.808;2022-09-17T00:24:05;11.50;99.90
25264;DHT22;13211;51.796;5.808;2022-09-17T00:26:33;11.50;99.90
25264;DHT22;13211;51.796;5.808;2022-09-17T00:29:02;11.40;99.90
25264;DHT22;13211;51.796;5.808;2022-09-17T00:31:30;11.50;99.90
25264;DHT22;13211;51.796;5.808;2022-09-17T00:33:59;11.50;99.90
25264;DHT22;13211;51.796;5.808;2022-09-17T00:36:29;11.50;99.90
25264;DHT22;13211;51.796;5.808;2022-09-17T00:38:58;11.50;99.90
25264;DHT22;13211;51.796;5.808;2022-09-17T00:41:28;11.50;99.90
25264;DHT22;13211;51.796;5.808;2022-09-17T00:44:34;11.50;99.90
25264;DHT22;13211;51.796;5.808;2022-09-17T00:46:50;11.50;99.90
25264;DHT22;13211;51.796;5.808;2022-09-17T00:49:23;11.50;99.90
25264;DHT22;13211;51.796;5.808;2022-09-17T00:51:58;11.50;99.90
25264;DHT22;13211;51.796;5.808;2022-09-17T00:54:27;11.50;99.90
25264;DHT22;13211;51.796;5.808;2022-09-17T00:56:55;11.50;99.90
25264;DHT22;13211;51.796;5.808;2022-09-17T00:59:23;11.50;99.90
25264;DHT22;13211;51.796;5.808;2022-09-17T01:01:52;11.50;99.90
25264;DHT22;13211;51.796;5.808;2022-09-17T01:04:25;11.60;99.90
25264;DHT22;13211;51.796;5.808;2022-09-17T01:07:32;11.60;99.90
25264;DHT22;13211;51.796;5.808;2022-09-17T01:16:07;11.70;99.90
25264;DHT22;13211;51.796;5.808;2022-09-17T01:19:11;11.60;99.90
25264;DHT22;13211;51.796;5.808;2022-09-17T01:27:21;11.70;99.90
25264;DHT22;13211;51.796;5.808;2022-09-17T01:30:18;11.70;99.90
25264;DHT22;13211;51.796;5.808;2022-09-17T01:41:42;11.80;99.90
25264;DHT22;13211;51.796;5.808;2022-09-17T01:47:14;11.70;99.90
25264;DHT22;13211;51.796;5.808;2022-09-17T01:49:50;11.70;99.90
25264;DHT22;13211;51.796;5.808;2022-09-17T01:52:19;11.70;99.90
25264;DHT22;13211;51.796;5.808;2022-09-17T01:54:55;11.70;99.90
25264;DHT22;13211;51.796;5.808;2022-09-17T01:57:43;11.60;99.90
25264;DHT22;13211;51.796;5.808;2022-09-17T02:00:13;11.60;99.90
25264;DHT22;13211;51.796;5.808;2022-09-17T02:05:18;11.50;99.90
25264;DHT22;13211;51.796;5.808;2022-09-17T02:07:59;11.50;99.90
25264;DHT22;13211;51.796;5.808;2022-09-17T02:10:33;11.50;99.90
25264;DHT22;13211;51.796;5.808;2022-09-17T02:13:07;11.40;99.90
25264;DHT22;13211;51.796;5.808;2022-09-17T02:15:41;11.40;99.90
25264;DHT22;13211;51.796;5.808;2022-09-17T02:18:35;11.40;99.90
25264;DHT22;13211;51.796;5.808;2022-09-17T02:26:36;11.30;99.90
25264;DHT22;13211;51.796;5.808;2022-09-17T02:29:08;11.20;99.90
25264;DHT22;13211;51.796;5.808;2022-09-17T02:31:40;11.20;99.90
25264;DHT22;13211;51.796;5.808;2022-09-17T02:34:09;11.20;99.90
25264;DHT22;13211;51.796;5.808;2022-09-17T02:36:39;11.20;99.90
25264;DHT22;13211;51.796;5.808;2022-09-17T02:39:08;11.20;99.90
25264;DHT22;13211;51.796;5.808;2022-09-17T02:47:22;11.10;99.90
25264;DHT22;13211;51.796;5.808;2022-09-17T02:55:36;10.90;99.90
25264;DHT22;13211;51.796;5.808;2022-09-17T02:58:21;10.90;99.90
25264;DHT22;13211;51.796;5.808;2022-09-17T03:00:56;10.90;99.90
25264;DHT22;13211;51.796;5.808;2022-09-17T03:03:50;10.90;99.90
25264;DHT22;13211;51.796;5.808;2022-09-17T03:06:20;10.80;99.90
25264;DHT22;13211;51.796;5.808;2022-09-17T03:08:48;10.80;99.90
25264;DHT22;13211;51.796;5.808;2022-09-17T03:11:16;10.80;99.90
25264;DHT22;13211;51.796;5.808;2022-09-17T03:13:43;10.80;99.90
25264;DHT22;13211;51.796;5.808;2022-09-17T03:16:10;10.70;99.90
25264;DHT22;13211;51.796;5.808;2022-09-17T03:18:38;10.80;99.90
25264;DHT22;13211;51.796;5.808;2022-09-17T03:21:05;10.80;99.90
25264;DHT22;13211;51.796;5.808;2022-09-17T03:23:32;10.80;99.90
25264;DHT22;13211;51.796;5.808;2022-09-17T03:25:59;10.70;99.90
25264;DHT22;13211;51.796;5.808;2022-09-17T03:28:27;10.70;99.90
25264;DHT22;13211;51.796;5.808;2022-09-17T03:30:54;10.70;99.90
25264;DHT22;13211;51.796;5.808;2022-09-17T03:33:22;10.70;99.90
25264;DHT22;13211;51.796;5.808;2022-09-17T03:35:49;10.60;99.90
25264;DHT22;13211;51.796;5.808;2022-09-17T03:38:19;10.60;99.90
25264;DHT22;13211;51.796;5.808;2022-09-17T03:41:04;10.60;99.90
25264;DHT22;13211;51.796;5.808;2022-09-17T03:43:33;10.50;99.90
25264;DHT22;13211;51.796;5.808;2022-09-17T03:46:01;10.50;99.90
25264;DHT22;13211;51.796;5.808;2022-09-17T03:48:28;10.50;99.90
25264;DHT22;13211;51.796;5.808;2022-09-17T03:50:56;10.50;99.90
25264;DHT22;13211;51.796;5.808;2022-09-17T03:53:23;10.50;99.90
25264;DHT22;13211;51.796;5.808;2022-09-17T03:55:50;10.40;99.90
25264;DHT22;13211;51.796;5.808;2022-09-17T03:58:18;10.40;99.90
25264;DHT22;13211;51.796;5.808;2022-09-17T04:00:47;10.40;99.90
25264;DHT22;13211;51.796;5.808;2022-09-17T04:03:19;10.40;99.90
25264;DHT22;13211;51.796;5.808;2022-09-17T04:05:48;10.40;99.90
25264;DHT22;13211;51.796;5.808;2022-09-17T04:08:16;10.40;99.90
25264;DHT22;13211;51.796;5.808;2022-09-17T04:10:44;10.40;99.90
25264;DHT22;13211;51.796;5.808;2022-09-17T04:13:13;10.40;99.90
25264;DHT22;13211;51.796;5.808;2022-09-17T04:15:41;10.30;99.90
25264;DHT22;13211;51.796;5.808;2022-09-17T04:18:08;10.30;99.90
25264;DHT22;13211;51.796;5.808;2022-09-17T04:20:36;10.30;99.90
25264;DHT22;13211;51.796;5.808;2022-09-17T04:23:03;10.30;99.90
25264;DHT22;13211;51.796;5.808;2022-09-17T04:25:31;10.20;99.90
25264;DHT22;13211;51.796;5.808;2022-09-17T04:27:58;10.20;99.90
25264;DHT22;13211;51.796;5.808;2022-09-17T04:30:25;10.20;99.90
25264;DHT22;13211;51.796;5.808;2022-09-17T04:32:52;10.20;99.90
25264;DHT22;13211;51.796;5.808;2022-09-17T04:35:20;10.20;99.90
25264;DHT22;13211;51.796;5.808;2022-09-17T04:37:53;10.20;99.90
25264;DHT22;13211;51.796;5.808;2022-09-17T04:40:22;10.20;99.90
25264;DHT22;13211;51.796;5.808;2022-09-17T04:42:58;10.20;99.90
25264;DHT22;13211;51.796;5.808;2022-09-17T04:45:25;10.10;99.90
25264;DHT22;13211;51.796;5.808;2022-09-17T04:47:53;10.10;99.90
25264;DHT22;13211;51.796;5.808;2022-09-17T04:50:20;10.10;99.90
25264;DHT22;13211;51.796;5.808;2022-09-17T04:52:52;10.10;99.90
25264;DHT22;13211;51.796;5.808;2022-09-17T04:55:20;10.10;99.90
25264;DHT22;13211;51.796;5.808;2022-09-17T04:57:50;10.10;99.90
25264;DHT22;13211;51.796;5.808;2022-09-17T05:00:19;10.10;99.90
25264;DHT22;13211;51.796;5.808;2022-09-17T05:02:50;10.10;99.90
25264;DHT22;13211;51.796;5.808;2022-09-17T05:05:20;10.20;99.90
25264;DHT22;13211;51.796;5.808;2022-09-17T05:07:48;10.20;99.90
25264;DHT22;13211;51.796;5.808;2022-09-17T05:10:17;10.20;99.90
25264;DHT22;13211;51.796;5.808;2022-09-17T05:12:54;10.20;99.90
25264;DHT22;13211;51.796;5.808;2022-09-17T05:15:25;10.20;99.90
25264;DHT22;13211;51.796;5.808;2022-09-17T05:17:54;10.20;99.90
25264;DHT22;13211;51.796;5.808;2022-09-17T05:20:23;10.20;99.90
25264;DHT22;13211;51.796;5.808;2022-09-17T05:22:52;10.20;99.90
25264;DHT22;13211;51.796;5.808;2022-09-17T05:25:23;10.30;99.90
25264;DHT22;13211;51.796;5.808;2022-09-17T05:27:55;10.30;99.90
25264;DHT22;13211;51.796;5.808;2022-09-17T05:30:23;10.30;99.90
25264;DHT22;13211;51.796;5.808;2022-09-17T05:33:03;10.30;99.90
25264;DHT22;13211;51.796;5.808;2022-09-17T05:35:33;10.30;99.90
25264;DHT22;13211;51.796;5.808;2022-09-17T05:38:04;10.30;99.90
25264;DHT22;13211;51.796;5.808;2022-09-17T05:40:31;10.30;99.90
25264;DHT22;13211;51.796;5.808;2022-09-17T05:43:03;10.30;99.90
25264;DHT22;13211;51.796;5.808;2022-09-17T05:45:33;10.40;99.90
25264;DHT22;13211;51.796;5.808;2022-09-17T05:48:03;10.40;99.90
25264;DHT22;13211;51.796;5.808;2022-09-17T05:50:31;10.40;99.90
25264;DHT22;13211;51.796;5.808;2022-09-17T05:53:12;10.50;99.90
25264;DHT22;13211;51.796;5.808;2022-09-17T05:55:39;10.50;99.90
25264;DHT22;13211;51.796;5.808;2022-09-17T05:58:12;10.50;99.90
25264;DHT22;13211;51.796;5.808;2022-09-17T06:00:40;10.50;99.90
25264;DHT22;13211;51.796;5.808;2022-09-17T06:03:11;10.60;99.90
25264;DHT22;13211;51.796;5.808;2022-09-17T06:05:39;10.60;99.90
25264;DHT22;13211;51.796;5.808;2022-09-17T06:08:07;10.60;99.90
25264;DHT22;13211;51.796;5.808;2022-09-17T06:10:36;10.70;99.90
25264;DHT22;13211;51.796;5.808;2022-09-17T06:13:04;10.70;99.90
25264;DHT22;13211;51.796;5.808;2022-09-17T06:15:31;10.80;99.90
25264;DHT22;13211;51.796;5.808;2022-09-17T06:17:59;10.80;99.90
25264;DHT22;13211;51.796;5.808;2022-09-17T06:20:26;10.80;99.90
25264;DHT22;13211;51.796;5.808;2022-09-17T06:22:56;10.80;99.90
25264;DHT22;13211;51.796;5.808;2022-09-17T06:25:24;10.90;99.90
25264;DHT22;13211;51.796;5.808;2022-09-17T06:27:55;10.90;99.90
25264;DHT22;13211;51.796;5.808;2022-09-17T06:30:22;11.00;99.90
25264;DHT22;13211;51.796;5.808;2022-09-17T06:32:50;11.00;99.90
25264;DHT22;13211;51.796;5.808;2022-09-17T06:35:18;11.10;99.90
25264;DHT22;13211;51.796;5.808;2022-09-17T06:37:46;11.20;99.90
25264;DHT22;13211;51.796;5.808;2022-09-17T06:40:13;11.30;99.90
25264;DHT22;13211;51.796;5.808;2022-09-17T06:42:41;11.30;99.90
25264;DHT22;13211;51.796;5.808;2022-09-17T06:45:09;11.30;99.90
25264;DHT22;13211;51.796;5.808;2022-09-17T06:47:42;11.40;99.90
25264;DHT22;13211;51.796;5.808;2022-09-17T06:50:09;11.50;99.90
25264;DHT22;13211;51.796;5.808;2022-09-17T06:52:36;11.60;99.90
25264;DHT22;13211;51.796;5.808;2022-09-17T06:55:04;11.60;99.90
25264;DHT22;13211;51.796;5.808;2022-09-17T06:57:32;11.70;99.90
25264;DHT22;13211;51.796;5.808;2022-09-17T06:59:59;11.70;99.90
25264;DHT22;13211;51.796;5.808;2022-09-17T07:02:26;11.80;99.90
25264;DHT22;13211;51.796;5.808;2022-09-17T07:04:54;11.80;99.90
25264;DHT22;13211;51.796;5.808;2022-09-17T07:07:22;11.90;99.90
25264;DHT22;13211;51.796;5.808;2022-09-17T07:09:49;11.90;99.90
25264;DHT22;13211;51.796;5.808;2022-09-17T07:12:19;11.90;99.90
25264;DHT22;13211;51.796;5.808;2022-09-17T07:14:48;12.00;99.90
25264;DHT22;13211;51.796;5.808;2022-09-17T07:17:15;12.00;99.90
25264;DHT22;13211;51.796;5.808;2022-09-17T07:19:42;12.00;99.90
25264;DHT22;13211;51.796;5.808;2022-09-17T07:22:13;12.00;99.90
25264;DHT22;13211;51.796;5.808;2022-09-17T07:24:41;12.10;99.90
25264;DHT22;13211;51.796;5.808;2022-09-17T07:27:08;12.10;99.90
25264;DHT22;13211;51.796;5.808;2022-09-17T07:29:36;12.20;99.90
25264;DHT22;13211;51.796;5.808;2022-09-17T07:32:03;12.30;99.90
25264;DHT22;13211;51.796;5.808;2022-09-17T07:34:31;12.40;99.90
25264;DHT22;13211;51.796;5.808;2022-09-17T07:36:58;12.50;99.90
25264;DHT22;13211;51.796;5.808;2022-09-17T07:39:26;12.50;99.90
25264;DHT22;13211;51.796;5.808;2022-09-17T07:41:53;12.50;99.90
25264;DHT22;13211;51.796;5.808;2022-09-17T07:44:20;12.60;99.90
25264;DHT22;13211;51.796;5.808;2022-09-17T07:46:49;12.70;99.90
25264;DHT22;13211;51.796;5.808;2022-09-17T07:49:20;12.70;99.90
25264;DHT22;13211;51.796;5.808;2022-09-17T07:51:49;12.80;99.90
25264;DHT22;13211;51.796;5.808;2022-09-17T07:54:16;12.80;99.90
25264;DHT22;13211;51.796;5.808;2022-09-17T07:56:43;12.80;99.90
25264;DHT22;13211;51.796;5.808;2022-09-17T07:59:11;12.80;99.90
25264;DHT22;13211;51.796;5.808;2022-09-17T08:01:38;12.90;99.90
25264;DHT22;13211;51.796;5.808;2022-09-17T08:04:05;12.90;99.90
25264;DHT22;13211;51.796;5.808;2022-09-17T08:06:36;13.00;99.90
25264;DHT22;13211;51.796;5.808;2022-09-17T08:09:03;13.10;99.90
25264;DHT22;13211;51.796;5.808;2022-09-17T08:11:31;13.20;99.90
25264;DHT22;13211;51.796;5.808;2022-09-17T08:14:19;13.20;99.90
25264;DHT22;13211;51.796;5.808;2022-09-17T08:16:52;13.40;99.90
25264;DHT22;13211;51.796;5.808;2022-09-17T08:19:21;13.40;99.90
25264;DHT22;13211;51.796;5.808;2022-09-17T08:21:51;13.50;99.90
25264;DHT22;13211;51.796;5.808;2022-09-17T08:24:19;13.50;99.90
25264;DHT22;13211;51.796;5.808;2022-09-17T08:26:49;13.60;99.90
25264;DHT22;13211;51.796;5.808;2022-09-17T08:29:25;13.70;99.90
25264;DHT22;13211;51.796;5.808;2022-09-17T08:31:53;13.80;99.90
25264;DHT22;13211;51.796;5.808;2022-09-17T08:34:20;13.80;99.90
25264;DHT22;13211;51.796;5.808;2022-09-17T08:36:49;13.80;99.90
25264;DHT22;13211;51.796;5.808;2022-09-17T08:39:18;13.90;99.90
25264;DHT22;13211;51.796;5.808;2022-09-17T08:47:29;14.20;99.90
25264;DHT22;13211;51.796;5.808;2022-09-17T08:50:02;14.30;99.90
25264;DHT22;13211;51.796;5.808;2022-09-17T08:52:58;14.40;99.90
25264;DHT22;13211;51.796;5.808;2022-09-17T08:55:45;14.60;99.90
25264;DHT22;13211;51.796;5.808;2022-09-17T09:03:48;14.90;99.90
25264;DHT22;13211;51.796;5.808;2022-09-17T09:06:23;15.00;99.90
25264;DHT22;13211;51.796;5.808;2022-09-17T09:09:02;15.20;99.90
25264;DHT22;13211;51.796;5.808;2022-09-17T09:11:34;15.30;99.90
25264;DHT22;13211;51.796;5.808;2022-09-17T09:14:20;15.50;99.90
25264;DHT22;13211;51.796;5.808;2022-09-17T09:16:52;15.60;99.90
25264;DHT22;13211;51.796;5.808;2022-09-17T09:19:23;15.50;99.90
25264;DHT22;13211;51.796;5.808;2022-09-17T09:27:31;15.40;99.90
25264;DHT22;13211;51.796;5.808;2022-09-17T09:30:10;15.40;99.90
25264;DHT22;13211;51.796;5.808;2022-09-17T09:35:28;15.80;99.90
25264;DHT22;13211;51.796;5.808;2022-09-17T09:38:34;16.10;99.90
25264;DHT22;13211;51.796;5.808;2022-09-17T09:44:04;16.70;99.90
25264;DHT22;13211;51.796;5.808;2022-09-17T09:54:53;16.10;99.90
25264;DHT22;13211;51.796;5.808;2022-09-17T09:57:43;15.90;99.90
25264;DHT22;13211;51.796;5.808;2022-09-17T10:06:05;16.00;99.90
25264;DHT22;13211;51.796;5.808;2022-09-17T10:09:20;16.30;99.90
25264;DHT22;13211;51.796;5.808;2022-09-17T10:11:24;16.50;99.90
25264;DHT22;13211;51.796;5.808;2022-09-17T10:13:54;16.70;99.90
25264;DHT22;13211;51.796;5.808;2022-09-17T10:16:39;16.80;99.90
25264;DHT22;13211;51.796;5.808;2022-09-17T10:26:49;17.50;99.90
25264;DHT22;13211;51.796;5.808;2022-09-17T10:29:19;17.60;99.90
25264;DHT22;13211;51.796;5.808;2022-09-17T10:31:49;17.90;99.90
25264;DHT22;13211;51.796;5.808;2022-09-17T10:36:54;18.20;99.90
25264;DHT22;13211;51.796;5.808;2022-09-17T10:39:35;18.20;99.90
25264;DHT22;13211;51.796;5.808;2022-09-17T10:42:15;18.20;99.90
25264;DHT22;13211;51.796;5.808;2022-09-17T10:47:30;18.30;99.90
25264;DHT22;13211;51.796;5.808;2022-09-17T10:50:03;18.20;99.90
25264;DHT22;13211;51.796;5.808;2022-09-17T10:52:35;18.20;99.90
25264;DHT22;13211;51.796;5.808;2022-09-17T11:09:47;17.00;99.90
25264;DHT22;13211;51.796;5.808;2022-09-17T11:18:29;18.20;99.90
25264;DHT22;13211;51.796;5.808;2022-09-17T11:21:23;18.60;99.90
25264;DHT22;13211;51.796;5.808;2022-09-17T11:35:31;19.50;99.90
25264;DHT22;13211;51.796;5.808;2022-09-17T11:38:24;19.50;99.90
25264;DHT22;13211;51.796;5.808;2022-09-17T11:41:28;19.70;99.90
25264;DHT22;13211;51.796;5.808;2022-09-17T11:46:49;19.90;99.90
25264;DHT22;13211;51.796;5.808;2022-09-17T11:52:05;19.90;99.90
25264;DHT22;13211;51.796;5.808;2022-09-17T11:54:59;20.10;99.90
25264;DHT22;13211;51.796;5.808;2022-09-17T11:57:39;20.20;99.90
25264;DHT22;13211;51.796;5.808;2022-09-17T12:00:19;20.00;99.90
25264;DHT22;13211;51.796;5.808;2022-09-17T12:03:13;20.20;99.90
25264;DHT22;13211;51.796;5.808;2022-09-17T12:05:47;20.50;99.90
25264;DHT22;13211;51.796;5.808;2022-09-17T12:08:33;20.70;99.90
25264;DHT22;13211;51.796;5.808;2022-09-17T12:11:19;20.50;99.90
25264;DHT22;13211;51.796;5.808;2022-09-17T12:13:53;20.40;99.90
25264;DHT22;13211;51.796;5.808;2022-09-17T12:16:36;20.50;99.90
25264;DHT22;13211;51.796;5.808;2022-09-17T12:19:30;20.20;99.90
25264;DHT22;13211;51.796;5.808;2022-09-17T12:22:05;19.90;99.90
25264;DHT22;13211;51.796;5.808;2022-09-17T12:24:34;19.70;99.90
25264;DHT22;13211;51.796;5.808;2022-09-17T12:32:41;18.50;99.90
25264;DHT22;13211;51.796;5.808;2022-09-17T12:46:54;19.40;99.90
25264;DHT22;13211;51.796;5.808;2022-09-17T12:52:23;19.60;99.90
25264;DHT22;13211;51.796;5.808;2022-09-17T13:03:46;18.50;99.90
25264;DHT22;13211;51.796;5.808;2022-09-17T13:12:11;18.80;99.90
25264;DHT22;13211;51.796;5.808;2022-09-17T13:17:52;19.40;99.90
25264;DHT22;13211;51.796;5.808;2022-09-17T13:20:45;19.80;99.90
25264;DHT22;13211;51.796;5.808;2022-09-17T13:23:37;19.90;99.90
25264;DHT22;13211;51.796;5.808;2022-09-17T13:26:08;20.00;99.90
25264;DHT22;13211;51.796;5.808;2022-09-17T13:28:45;19.90;99.90
25264;DHT22;13211;51.796;5.808;2022-09-17T13:36:58;18.80;99.90
25264;DHT22;13211;51.796;5.808;2022-09-17T13:42:22;18.40;99.90
25264;DHT22;13211;51.796;5.808;2022-09-17T13:45:11;18.20;99.90
25264;DHT22;13211;51.796;5.808;2022-09-17T13:47:53;18.10;99.90
25264;DHT22;13211;51.796;5.808;2022-09-17T13:50:27;17.90;99.90
25264;DHT22;13211;51.796;5.808;2022-09-17T13:55:48;18.00;99.90
25264;DHT22;13211;51.796;5.808;2022-09-17T14:01:01;17.90;99.90
25264;DHT22;13211;51.796;5.808;2022-09-17T14:22:15;17.60;99.90
25264;DHT22;13211;51.796;5.808;2022-09-17T14:33:06;17.30;99.90
25264;DHT22;13211;51.796;5.808;2022-09-17T14:35:44;17.10;99.90
25264;DHT22;13211;51.796;5.808;2022-09-17T14:41:38;17.10;99.90
25264;DHT22;13211;51.796;5.808;2022-09-17T14:46:38;17.00;99.90
25264;DHT22;13211;51.796;5.808;2022-09-17T14:51:41;16.70;99.90
25264;DHT22;13211;51.796;5.808;2022-09-17T14:54:20;16.60;99.90
25264;DHT22;13211;51.796;5.808;2022-09-17T15:01:58;16.50;99.90
25264;DHT22;13211;51.796;5.808;2022-09-17T15:04:27;16.50;99.90
25264;DHT22;13211;51.796;5.808;2022-09-17T15:07:08;16.40;99.90
25264;DHT22;13211;51.796;5.808;2022-09-17T15:09:37;16.40;99.90
25264;DHT22;13211;51.796;5.808;2022-09-17T15:12:05;16.40;99.90
25264;DHT22;13211;51.796;5.808;2022-09-17T15:14:37;16.20;99.90
25264;DHT22;13211;51.796;5.808;2022-09-17T15:17:06;16.20;99.90
25264;DHT22;13211;51.796;5.808;2022-09-17T15:19:44;16.20;99.90
25264;DHT22;13211;51.796;5.808;2022-09-17T15:22:31;16.20;99.90
25264;DHT22;13211;51.796;5.808;2022-09-17T15:25:04;16.10;99.90
25264;DHT22;13211;51.796;5.808;2022-09-17T15:27:44;16.00;99.90
25264;DHT22;13211;51.796;5.808;2022-09-17T15:30:17;15.90;99.90
25264;DHT22;13211;51.796;5.808;2022-09-17T15:32:59;15.80;99.90
25264;DHT22;13211;51.796;5.808;2022-09-17T15:35:28;15.70;99.90
25264;DHT22;13211;51.796;5.808;2022-09-17T15:37:59;15.70;99.90
25264;DHT22;13211;51.796;5.808;2022-09-17T15:40:48;15.60;99.90
25264;DHT22;13211;51.796;5.808;2022-09-17T15:45:53;15.50;99.90
25264;DHT22;13211;51.796;5.808;2022-09-17T15:48:28;15.50;99.90
25264;DHT22;13211;51.796;5.808;2022-09-17T15:51:02;15.50;99.90
25264;DHT22;13211;51.796;5.808;2022-09-17T15:53:32;15.60;99.90
25264;DHT22;13211;51.796;5.808;2022-09-17T16:08:56;15.70;99.90
25264;DHT22;13211;51.796;5.808;2022-09-17T16:11:26;15.70;99.90
25264;DHT22;13211;51.796;5.808;2022-09-17T16:13:55;15.80;99.90
25264;DHT22;13211;51.796;5.808;2022-09-17T16:16:31;15.80;99.90
25264;DHT22;13211;51.796;5.808;2022-09-17T16:19:01;15.80;99.90
25264;DHT22;13211;51.796;5.808;2022-09-17T16:21:28;15.90;99.90
25264;DHT22;13211;51.796;5.808;2022-09-17T16:23:57;15.80;99.90
25264;DHT22;13211;51.796;5.808;2022-09-17T16:26:28;15.80;99.90
25264;DHT22;13211;51.796;5.808;2022-09-17T16:29:06;15.80;99.90
25264;DHT22;13211;51.796;5.808;2022-09-17T16:31:45;15.80;99.90
25264;DHT22;13211;51.796;5.808;2022-09-17T16:34:16;15.80;99.90
25264;DHT22;13211;51.796;5.808;2022-09-17T16:36:46;15.80;99.90
25264;DHT22;13211;51.796;5.808;2022-09-17T16:39:13;15.70;99.90
25264;DHT22;13211;51.796;5.808;2022-09-17T16:41:40;15.60;99.90
25264;DHT22;13211;51.796;5.808;2022-09-17T16:44:08;15.60;99.90
25264;DHT22;13211;51.796;5.808;2022-09-17T16:46:35;15.50;99.90
25264;DHT22;13211;51.796;5.808;2022-09-17T16:49:02;15.40;99.90
25264;DHT22;13211;51.796;5.808;2022-09-17T16:51:29;15.40;99.90
25264;DHT22;13211;51.796;5.808;2022-09-17T16:53:57;15.30;99.90
25264;DHT22;13211;51.796;5.808;2022-09-17T16:56:24;15.20;99.90
25264;DHT22;13211;51.796;5.808;2022-09-17T16:58:55;15.10;99.90
25264;DHT22;13211;51.796;5.808;2022-09-17T17:01:22;15.10;99.90
25264;DHT22;13211;51.796;5.808;2022-09-17T17:03:51;15.10;99.90
25264;DHT22;13211;51.796;5.808;2022-09-17T17:06:24;15.10;99.90
25264;DHT22;13211;51.796;5.808;2022-09-17T17:08:52;15.00;99.90
25264;DHT22;13211;51.796;5.808;2022-09-17T17:11:20;15.00;99.90
25264;DHT22;13211;51.796;5.808;2022-09-17T17:13:48;15.00;99.90
25264;DHT22;13211;51.796;5.808;2022-09-17T17:16:16;14.90;99.90
25264;DHT22;13211;51.796;5.808;2022-09-17T17:18:43;14.80;99.90
25264;DHT22;13211;51.796;5.808;2022-09-17T17:21:13;14.80;99.90
25264;DHT22;13211;51.796;5.808;2022-09-17T17:23:40;14.70;99.90
25264;DHT22;13211;51.796;5.808;2022-09-17T17:26:10;14.60;99.90
25264;DHT22;13211;51.796;5.808;2022-09-17T17:28:37;14.60;99.90
25264;DHT22;13211;51.796;5.808;2022-09-17T17:31:05;14.50;99.90
25264;DHT22;13211;51.796;5.808;2022-09-17T17:33:33;14.50;99.90
25264;DHT22;13211;51.796;5.808;2022-09-17T17:36:02;14.40;99.90
25264;DHT22;13211;51.796;5.808;2022-09-17T17:38:35;14.30;99.90
25264;DHT22;13211;51.796;5.808;2022-09-17T17:43:39;14.30;99.90
25264;DHT22;13211;51.796;5.808;2022-09-17T17:46:08;14.20;99.90
25264;DHT22;13211;51.796;5.808;2022-09-17T17:48:37;14.20;99.90
25264;DHT22;13211;51.796;5.808;2022-09-17T17:51:09;14.10;99.90
25264;DHT22;13211;51.796;5.808;2022-09-17T17:53:40;14.10;99.90
25264;DHT22;13211;51.796;5.808;2022-09-17T17:56:09;14.00;99.90
25264;DHT22;13211;51.796;5.808;2022-09-17T17:58:37;13.90;99.90
25264;DHT22;13211;51.796;5.808;2022-09-17T18:01:23;13.90;99.90
25264;DHT22;13211;51.796;5.808;2022-09-17T18:04:00;13.90;99.90
25264;DHT22;13211;51.796;5.808;2022-09-17T18:06:29;13.80;99.90
25264;DHT22;13211;51.796;5.808;2022-09-17T18:08:57;13.80;99.90
25264;DHT22;13211;51.796;5.808;2022-09-17T18:11:24;13.70;99.90
25264;DHT22;13211;51.796;5.808;2022-09-17T18:13:54;13.70;99.90
25264;DHT22;13211;51.796;5.808;2022-09-17T18:16:23;13.70;99.90
25264;DHT22;13211;51.796;5.808;2022-09-17T18:18:50;13.60;99.90
25264;DHT22;13211;51.796;5.808;2022-09-17T18:21:20;13.60;99.90
25264;DHT22;13211;51.796;5.808;2022-09-17T18:23:49;13.60;99.90
25264;DHT22;13211;51.796;5.808;2022-09-17T18:26:25;13.60;99.90
25264;DHT22;13211;51.796;5.808;2022-09-17T18:28:54;13.50;99.90
25264;DHT22;13211;51.796;5.808;2022-09-17T18:31:27;13.50;99.90
25264;DHT22;13211;51.796;5.808;2022-09-17T18:34:00;13.50;99.90
25264;DHT22;13211;51.796;5.808;2022-09-17T18:36:30;13.40;99.90
25264;DHT22;13211;51.796;5.808;2022-09-17T18:39:00;13.40;99.90
25264;DHT22;13211;51.796;5.808;2022-09-17T18:41:48;13.40;99.90
25264;DHT22;13211;51.796;5.808;2022-09-17T18:44:15;13.30;99.90
25264;DHT22;13211;51.796;5.808;2022-09-17T18:46:44;13.30;99.90
25264;DHT22;13211;51.796;5.808;2022-09-17T18:49:14;13.30;99.90
25264;DHT22;13211;51.796;5.808;2022-09-17T18:51:42;13.30;99.90
25264;DHT22;13211;51.796;5.808;2022-09-17T18:54:09;13.30;99.90
25264;DHT22;13211;51.796;5.808;2022-09-17T18:56:38;13.30;99.90
25264;DHT22;13211;51.796;5.808;2022-09-17T18:59:08;13.30;99.90
25264;DHT22;13211;51.796;5.808;2022-09-17T19:01:37;13.30;99.90
25264;DHT22;13211;51.796;5.808;2022-09-17T19:04:04;13.30;99.90
25264;DHT22;13211;51.796;5.808;2022-09-17T19:06:34;13.20;99.90
25264;DHT22;13211;51.796;5.808;2022-09-17T19:09:03;13.20;99.90
25264;DHT22;13211;51.796;5.808;2022-09-17T19:11:32;13.20;99.90
25264;DHT22;13211;51.796;5.808;2022-09-17T19:14:00;13.20;99.90
25264;DHT22;13211;51.796;5.808;2022-09-17T19:16:28;13.20;99.90
25264;DHT22;13211;51.796;5.808;2022-09-17T19:18:56;13.10;99.90
25264;DHT22;13211;51.796;5.808;2022-09-17T19:21:27;13.20;99.90
25264;DHT22;13211;51.796;5.808;2022-09-17T19:23:55;13.10;99.90
25264;DHT22;13211;51.796;5.808;2022-09-17T19:26:25;13.10;99.90
25264;DHT22;13211;51.796;5.808;2022-09-17T19:28:54;13.10;99.90
25264;DHT22;13211;51.796;5.808;2022-09-17T19:31:24;13.00;99.90
25264;DHT22;13211;51.796;5.808;2022-09-17T19:33:52;13.00;99.90
25264;DHT22;13211;51.796;5.808;2022-09-17T19:36:19;13.00;99.90
25264;DHT22;13211;51.796;5.808;2022-09-17T19:38:48;13.00;99.90
25264;DHT22;13211;51.796;5.808;2022-09-17T19:41:18;12.90;99.90
25264;DHT22;13211;51.796;5.808;2022-09-17T19:43:46;12.90;99.90
25264;DHT22;13211;51.796;5.808;2022-09-17T19:46:18;12.90;99.90
25264;DHT22;13211;51.796;5.808;2022-09-17T19:48:51;12.80;99.90
25264;DHT22;13211;51.796;5.808;2022-09-17T19:51:22;12.80;99.90
25264;DHT22;13211;51.796;5.808;2022-09-17T19:53:50;12.80;99.90
25264;DHT22;13211;51.796;5.808;2022-09-17T19:56:21;12.70;99.90
25264;DHT22;13211;51.796;5.808;2022-09-17T19:58:50;12.70;99.90
25264;DHT22;13211;51.796;5.808;2022-09-17T20:01:19;12.70;99.90
25264;DHT22;13211;51.796;5.808;2022-09-17T20:03:50;12.60;99.90